sensor_id;sensor_type;location;lat;lon;timestamp;P1;durP1;ratioP1;P2;durP2;ratioP2
9675;SDS011;4876;42.656;23.292;2023-06-14T00:01:30;7.30;;;6.60;;
9675;SDS011;4876;42.656;23.292;2023-06-14T00:03:59;7.80;;;7.00;;
9675;SDS011;4876;42.656;23.292;2023-06-14T00:06:28;9.67;;;6.97;;
9675;SDS011;4876;42.656;23.292;2023-06-14T00:08:55;8.63;;;7.17;;
9675;SDS011;4876;42.656;23.292;2023-06-14T00:11:22;7.70;;;6.93;;
9675;SDS011;4876;42.656;23.292;2023-06-14T00:13:49;9.47;;;7.00;;
9675;SDS011;4876;42.656;23.292;2023-06-14T00:16:17;7.93;;;7.07;;
9675;SDS011;4876;42.656;23.292;2023-06-14T00:18:44;8.40;;;7.60;;
9675;SDS011;4876;42.656;23.292;2023-06-14T00:21:11;11.20;;;8.00;;
9675;SDS011;4876;42.656;23.292;2023-06-14T00:23:38;8.77;;;7.87;;
9675;SDS011;4876;42.656;23.292;2023-06-14T00:26:05;11.47;;;8.30;;
9675;SDS011;4876;42.656;23.292;2023-06-14T00:28:32;10.47;;;7.80;;
9675;SDS011;4876;42.656;23.292;2023-06-14T00:30:58;10.37;;;8.27;;
9675;SDS011;4876;42.656;23.292;2023-06-14T00:33:27;11.87;;;8.70;;
9675;SDS011;4876;42.656;23.292;2023-06-14T00:35:53;11.37;;;9.00;;
9675;SDS011;4876;42.656;23.292;2023-06-14T00:38:20;11.17;;;8.90;;
9675;SDS011;4876;42.656;23.292;2023-06-14T00:40:47;13.47;;;8.93;;
9675;SDS011;4876;42.656;23.292;2023-06-14T00:43:14;10.20;;;9.20;;
9675;SDS011;4876;42.656;23.292;2023-06-14T00:45:41;10.10;;;9.03;;
9675;SDS011;4876;42.656;23.292;2023-06-14T00:48:07;10.43;;;8.33;;
9675;SDS011;4876;42.656;23.292;2023-06-14T00:50:36;9.73;;;8.83;;
9675;SDS011;4876;42.656;23.292;2023-06-14T00:53:03;12.20;;;8.67;;
9675;SDS011;4876;42.656;23.292;2023-06-14T00:55:30;10.13;;;8.20;;
9675;SDS011;4876;42.656;23.292;2023-06-14T00:57:57;9.00;;;8.20;;
9675;SDS011;4876;42.656;23.292;2023-06-14T01:00:25;11.87;;;8.37;;
9675;SDS011;4876;42.656;23.292;2023-06-14T01:02:53;9.03;;;8.07;;
9675;SDS011;4876;42.656;23.292;2023-06-14T01:05:22;8.93;;;7.13;;
9675;SDS011;4876;42.656;23.292;2023-06-14T01:07:54;17.27;;;7.97;;
9675;SDS011;4876;42.656;23.292;2023-06-14T01:10:35;15.50;;;7.47;;
9675;SDS011;4876;42.656;23.292;2023-06-14T01:13:08;11.87;;;7.63;;
9675;SDS011;4876;42.656;23.292;2023-06-14T01:15:39;10.83;;;7.60;;
9675;SDS011;4876;42.656;23.292;2023-06-14T01:18:07;9.70;;;7.80;;
9675;SDS011;4876;42.656;23.292;2023-06-14T01:20:42;8.00;;;7.20;;
9675;SDS011;4876;42.656;23.292;2023-06-14T01:23:13;10.17;;;7.63;;
9675;SDS011;4876;42.656;23.292;2023-06-14T01:25:40;10.13;;;7.60;;
9675;SDS011;4876;42.656;23.292;2023-06-14T01:28:10;10.47;;;7.93;;
9675;SDS011;4876;42.656;23.292;2023-06-14T01:30:38;11.40;;;7.50;;
9675;SDS011;4876;42.656;23.292;2023-06-14T01:33:10;10.37;;;7.50;;
9675;SDS011;4876;42.656;23.292;2023-06-14T01:35:38;12.07;;;6.80;;
9675;SDS011;4876;42.656;23.292;2023-06-14T01:38:05;7.80;;;6.97;;
9675;SDS011;4876;42.656;23.292;2023-06-14T01:40:34;8.60;;;6.67;;
9675;SDS011;4876;42.656;23.292;2023-06-14T01:43:02;7.93;;;6.67;;
9675;SDS011;4876;42.656;23.292;2023-06-14T01:45:30;8.90;;;7.33;;
9675;SDS011;4876;42.656;23.292;2023-06-14T01:47:59;11.60;;;6.93;;
9675;SDS011;4876;42.656;23.292;2023-06-14T01:50:27;8.97;;;7.73;;
9675;SDS011;4876;42.656;23.292;2023-06-14T01:52:55;9.87;;;7.13;;
9675;SDS011;4876;42.656;23.292;2023-06-14T01:55:22;9.20;;;6.50;;
9675;SDS011;4876;42.656;23.292;2023-06-14T01:57:51;10.27;;;7.03;;
9675;SDS011;4876;42.656;23.292;2023-06-14T02:00:19;11.73;;;6.90;;
9675;SDS011;4876;42.656;23.292;2023-06-14T02:02:46;10.40;;;6.83;;
9675;SDS011;4876;42.656;23.292;2023-06-14T02:05:14;7.87;;;7.00;;
9675;SDS011;4876;42.656;23.292;2023-06-14T02:07:44;7.97;;;7.07;;
9675;SDS011;4876;42.656;23.292;2023-06-14T02:10:11;13.47;;;8.53;;
9675;SDS011;4876;42.656;23.292;2023-06-14T02:12:38;8.10;;;7.27;;
9675;SDS011;4876;42.656;23.292;2023-06-14T02:15:07;10.60;;;7.80;;
9675;SDS011;4876;42.656;23.292;2023-06-14T02:17:35;7.50;;;6.50;;
9675;SDS011;4876;42.656;23.292;2023-06-14T02:20:02;6.20;;;5.60;;
9675;SDS011;4876;42.656;23.292;2023-06-14T02:22:30;7.47;;;5.47;;
9675;SDS011;4876;42.656;23.292;2023-06-14T02:24:57;6.47;;;5.77;;
9675;SDS011;4876;42.656;23.292;2023-06-14T02:27:24;7.10;;;6.13;;
9675;SDS011;4876;42.656;23.292;2023-06-14T02:29:51;7.37;;;6.67;;
9675;SDS011;4876;42.656;23.292;2023-06-14T02:32:19;7.37;;;6.63;;
9675;SDS011;4876;42.656;23.292;2023-06-14T02:34:46;7.33;;;6.63;;
9675;SDS011;4876;42.656;23.292;2023-06-14T02:37:15;9.40;;;6.60;;
9675;SDS011;4876;42.656;23.292;2023-06-14T02:39:42;7.50;;;6.83;;
9675;SDS011;4876;42.656;23.292;2023-06-14T02:42:08;7.73;;;6.87;;
9675;SDS011;4876;42.656;23.292;2023-06-14T02:44:35;8.70;;;7.20;;
9675;SDS011;4876;42.656;23.292;2023-06-14T02:47:02;9.10;;;6.90;;
9675;SDS011;4876;42.656;23.292;2023-06-14T02:49:31;7.63;;;6.90;;
9675;SDS011;4876;42.656;23.292;2023-06-14T02:51:58;7.57;;;6.70;;
9675;SDS011;4876;42.656;23.292;2023-06-14T02:54:25;9.97;;;7.10;;
9675;SDS011;4876;42.656;23.292;2023-06-14T02:56:51;12.43;;;6.73;;
9675;SDS011;4876;42.656;23.292;2023-06-14T02:59:18;10.17;;;7.50;;
9675;SDS011;4876;42.656;23.292;2023-06-14T03:01:46;8.40;;;6.60;;
9675;SDS011;4876;42.656;23.292;2023-06-14T03:04:13;7.50;;;6.50;;
9675;SDS011;4876;42.656;23.292;2023-06-14T03:06:42;8.00;;;6.33;;
9675;SDS011;4876;42.656;23.292;2023-06-14T03:09:15;6.93;;;5.73;;
9675;SDS011;4876;42.656;23.292;2023-06-14T03:11:42;5.93;;;5.43;;
9675;SDS011;4876;42.656;23.292;2023-06-14T03:14:09;8.33;;;5.77;;
9675;SDS011;4876;42.656;23.292;2023-06-14T03:16:36;8.10;;;5.63;;
9675;SDS011;4876;42.656;23.292;2023-06-14T03:19:03;8.93;;;5.60;;
9675;SDS011;4876;42.656;23.292;2023-06-14T03:21:30;10.07;;;5.57;;
9675;SDS011;4876;42.656;23.292;2023-06-14T03:23:58;6.57;;;5.20;;
9675;SDS011;4876;42.656;23.292;2023-06-14T03:26:25;13.60;;;5.23;;
9675;SDS011;4876;42.656;23.292;2023-06-14T03:28:52;5.73;;;5.00;;
9675;SDS011;4876;42.656;23.292;2023-06-14T03:31:19;5.30;;;4.80;;
9675;SDS011;4876;42.656;23.292;2023-06-14T03:33:46;7.13;;;5.63;;
9675;SDS011;4876;42.656;23.292;2023-06-14T03:36:13;6.53;;;5.37;;
9675;SDS011;4876;42.656;23.292;2023-06-14T03:38:40;6.10;;;5.50;;
9675;SDS011;4876;42.656;23.292;2023-06-14T03:41:08;6.70;;;6.10;;
9675;SDS011;4876;42.656;23.292;2023-06-14T03:43:35;8.10;;;6.17;;
9675;SDS011;4876;42.656;23.292;2023-06-14T03:46:02;11.00;;;7.20;;
9675;SDS011;4876;42.656;23.292;2023-06-14T03:48:29;7.00;;;6.40;;
9675;SDS011;4876;42.656;23.292;2023-06-14T03:50:56;7.53;;;6.30;;
9675;SDS011;4876;42.656;23.292;2023-06-14T03:53:23;7.07;;;6.37;;
9675;SDS011;4876;42.656;23.292;2023-06-14T03:55:50;8.20;;;6.70;;
9675;SDS011;4876;42.656;23.292;2023-06-14T03:58:20;8.70;;;7.80;;
9675;SDS011;4876;42.656;23.292;2023-06-14T04:00:47;10.77;;;7.13;;
9675;SDS011;4876;42.656;23.292;2023-06-14T04:03:14;9.33;;;6.70;;
9675;SDS011;4876;42.656;23.292;2023-06-14T04:05:41;14.03;;;7.20;;
9675;SDS011;4876;42.656;23.292;2023-06-14T04:08:09;11.90;;;7.00;;
9675;SDS011;4876;42.656;23.292;2023-06-14T04:10:39;9.93;;;6.37;;
9675;SDS011;4876;42.656;23.292;2023-06-14T04:13:06;11.67;;;6.67;;
9675;SDS011;4876;42.656;23.292;2023-06-14T04:15:38;7.67;;;6.87;;
9675;SDS011;4876;42.656;23.292;2023-06-14T04:18:07;8.73;;;6.83;;
9675;SDS011;4876;42.656;23.292;2023-06-14T04:20:34;10.53;;;6.53;;
9675;SDS011;4876;42.656;23.292;2023-06-14T04:23:10;10.23;;;5.70;;
9675;SDS011;4876;42.656;23.292;2023-06-14T04:25:38;7.33;;;6.03;;
9675;SDS011;4876;42.656;23.292;2023-06-14T04:28:05;9.37;;;5.53;;
9675;SDS011;4876;42.656;23.292;2023-06-14T04:30:34;12.33;;;5.90;;
9675;SDS011;4876;42.656;23.292;2023-06-14T04:33:05;8.90;;;6.13;;
9675;SDS011;4876;42.656;23.292;2023-06-14T04:35:31;7.90;;;7.10;;
9675;SDS011;4876;42.656;23.292;2023-06-14T04:38:00;9.63;;;7.10;;
9675;SDS011;4876;42.656;23.292;2023-06-14T04:40:29;9.07;;;7.63;;
9675;SDS011;4876;42.656;23.292;2023-06-14T04:42:56;8.10;;;7.33;;
9675;SDS011;4876;42.656;23.292;2023-06-14T04:45:23;13.33;;;6.40;;
9675;SDS011;4876;42.656;23.292;2023-06-14T04:47:58;12.00;;;7.03;;
9675;SDS011;4876;42.656;23.292;2023-06-14T04:50:26;9.50;;;6.23;;
9675;SDS011;4876;42.656;23.292;2023-06-14T04:52:54;11.53;;;6.53;;
9675;SDS011;4876;42.656;23.292;2023-06-14T04:55:22;12.73;;;7.23;;
9675;SDS011;4876;42.656;23.292;2023-06-14T04:57:49;7.93;;;7.23;;
9675;SDS011;4876;42.656;23.292;2023-06-14T05:00:18;7.80;;;7.07;;
9675;SDS011;4876;42.656;23.292;2023-06-14T05:02:46;7.80;;;6.97;;
9675;SDS011;4876;42.656;23.292;2023-06-14T05:05:14;7.00;;;6.40;;
9675;SDS011;4876;42.656;23.292;2023-06-14T05:07:43;7.47;;;6.73;;
9675;SDS011;4876;42.656;23.292;2023-06-14T05:10:11;9.80;;;7.00;;
9675;SDS011;4876;42.656;23.292;2023-06-14T05:12:38;7.83;;;7.13;;
9675;SDS011;4876;42.656;23.292;2023-06-14T05:15:06;7.83;;;7.13;;
9675;SDS011;4876;42.656;23.292;2023-06-14T05:17:34;8.27;;;7.53;;
9675;SDS011;4876;42.656;23.292;2023-06-14T05:20:01;8.07;;;7.23;;
9675;SDS011;4876;42.656;23.292;2023-06-14T05:22:30;8.40;;;7.60;;
9675;SDS011;4876;42.656;23.292;2023-06-14T05:24:58;8.27;;;7.20;;
9675;SDS011;4876;42.656;23.292;2023-06-14T05:27:25;8.30;;;7.50;;
9675;SDS011;4876;42.656;23.292;2023-06-14T05:29:52;9.07;;;7.53;;
9675;SDS011;4876;42.656;23.292;2023-06-14T05:32:21;8.80;;;8.00;;
9675;SDS011;4876;42.656;23.292;2023-06-14T05:34:47;10.67;;;8.70;;
9675;SDS011;4876;42.656;23.292;2023-06-14T05:37:15;8.87;;;7.97;;
9675;SDS011;4876;42.656;23.292;2023-06-14T05:39:42;9.40;;;8.00;;
9675;SDS011;4876;42.656;23.292;2023-06-14T05:42:10;10.87;;;8.60;;
9675;SDS011;4876;42.656;23.292;2023-06-14T05:44:37;13.90;;;9.63;;
9675;SDS011;4876;42.656;23.292;2023-06-14T05:47:04;20.17;;;9.90;;
9675;SDS011;4876;42.656;23.292;2023-06-14T05:49:31;11.37;;;10.17;;
9675;SDS011;4876;42.656;23.292;2023-06-14T05:51:58;10.50;;;9.10;;
9675;SDS011;4876;42.656;23.292;2023-06-14T05:54:25;12.20;;;9.43;;
9675;SDS011;4876;42.656;23.292;2023-06-14T05:56:51;19.60;;;10.37;;
9675;SDS011;4876;42.656;23.292;2023-06-14T05:59:20;12.47;;;10.37;;
9675;SDS011;4876;42.656;23.292;2023-06-14T06:01:46;11.60;;;10.40;;
9675;SDS011;4876;42.656;23.292;2023-06-14T06:04:13;13.70;;;10.37;;
9675;SDS011;4876;42.656;23.292;2023-06-14T06:06:40;12.33;;;10.53;;
9675;SDS011;4876;42.656;23.292;2023-06-14T06:09:07;12.47;;;11.07;;
9675;SDS011;4876;42.656;23.292;2023-06-14T06:11:34;12.47;;;10.63;;
9675;SDS011;4876;42.656;23.292;2023-06-14T06:14:01;22.13;;;11.43;;
9675;SDS011;4876;42.656;23.292;2023-06-14T06:16:29;13.60;;;12.17;;
9675;SDS011;4876;42.656;23.292;2023-06-14T06:18:56;17.20;;;11.80;;
9675;SDS011;4876;42.656;23.292;2023-06-14T06:21:22;21.30;;;12.60;;
9675;SDS011;4876;42.656;23.292;2023-06-14T06:23:49;18.13;;;12.87;;
9675;SDS011;4876;42.656;23.292;2023-06-14T06:26:16;16.20;;;12.77;;
9675;SDS011;4876;42.656;23.292;2023-06-14T06:28:43;13.73;;;12.27;;
9675;SDS011;4876;42.656;23.292;2023-06-14T06:31:10;16.67;;;13.30;;
9675;SDS011;4876;42.656;23.292;2023-06-14T06:33:38;18.20;;;12.47;;
9675;SDS011;4876;42.656;23.292;2023-06-14T06:36:06;15.60;;;11.73;;
9675;SDS011;4876;42.656;23.292;2023-06-14T06:38:32;12.97;;;11.60;;
9675;SDS011;4876;42.656;23.292;2023-06-14T06:41:00;12.77;;;11.37;;
9675;SDS011;4876;42.656;23.292;2023-06-14T06:43:27;13.50;;;11.67;;
9675;SDS011;4876;42.656;23.292;2023-06-14T06:45:53;17.03;;;12.73;;
9675;SDS011;4876;42.656;23.292;2023-06-14T06:48:20;15.47;;;11.80;;
9675;SDS011;4876;42.656;23.292;2023-06-14T06:50:48;15.47;;;11.37;;
9675;SDS011;4876;42.656;23.292;2023-06-14T06:53:16;15.87;;;11.03;;
9675;SDS011;4876;42.656;23.292;2023-06-14T06:55:43;13.60;;;12.07;;
9675;SDS011;4876;42.656;23.292;2023-06-14T06:58:11;22.20;;;13.23;;
9675;SDS011;4876;42.656;23.292;2023-06-14T07:00:38;16.93;;;11.93;;
9675;SDS011;4876;42.656;23.292;2023-06-14T07:03:05;13.90;;;12.30;;
9675;SDS011;4876;42.656;23.292;2023-06-14T07:05:51;17.67;;;11.80;;
9675;SDS011;4876;42.656;23.292;2023-06-14T07:08:17;17.17;;;12.87;;
9675;SDS011;4876;42.656;23.292;2023-06-14T07:10:44;13.37;;;11.80;;
9675;SDS011;4876;42.656;23.292;2023-06-14T07:13:11;15.43;;;12.40;;
9675;SDS011;4876;42.656;23.292;2023-06-14T07:15:39;16.63;;;12.33;;
9675;SDS011;4876;42.656;23.292;2023-06-14T07:18:05;17.00;;;13.53;;
9675;SDS011;4876;42.656;23.292;2023-06-14T07:20:33;15.33;;;13.60;;
9675;SDS011;4876;42.656;23.292;2023-06-14T07:23:01;19.40;;;13.33;;
9675;SDS011;4876;42.656;23.292;2023-06-14T07:25:28;19.73;;;13.23;;
9675;SDS011;4876;42.656;23.292;2023-06-14T07:27:55;18.33;;;13.43;;
9675;SDS011;4876;42.656;23.292;2023-06-14T07:30:22;15.73;;;12.43;;
9675;SDS011;4876;42.656;23.292;2023-06-14T07:32:51;15.00;;;12.07;;
9675;SDS011;4876;42.656;23.292;2023-06-14T07:35:17;14.07;;;12.70;;
9675;SDS011;4876;42.656;23.292;2023-06-14T07:37:44;20.70;;;12.83;;
9675;SDS011;4876;42.656;23.292;2023-06-14T07:40:14;18.03;;;13.30;;
9675;SDS011;4876;42.656;23.292;2023-06-14T07:42:41;14.97;;;13.43;;
9675;SDS011;4876;42.656;23.292;2023-06-14T07:45:08;15.87;;;12.67;;
9675;SDS011;4876;42.656;23.292;2023-06-14T07:47:35;17.93;;;13.30;;
9675;SDS011;4876;42.656;23.292;2023-06-14T07:50:02;13.73;;;12.33;;
9675;SDS011;4876;42.656;23.292;2023-06-14T07:52:29;20.70;;;13.57;;
9675;SDS011;4876;42.656;23.292;2023-06-14T07:54:56;18.23;;;12.80;;
9675;SDS011;4876;42.656;23.292;2023-06-14T07:57:24;19.60;;;13.80;;
9675;SDS011;4876;42.656;23.292;2023-06-14T07:59:51;19.70;;;12.83;;
9675;SDS011;4876;42.656;23.292;2023-06-14T08:02:18;18.87;;;13.10;;
9675;SDS011;4876;42.656;23.292;2023-06-14T08:04:45;14.43;;;12.23;;
9675;SDS011;4876;42.656;23.292;2023-06-14T08:07:13;15.53;;;12.80;;
9675;SDS011;4876;42.656;23.292;2023-06-14T08:09:40;13.43;;;11.80;;
9675;SDS011;4876;42.656;23.292;2023-06-14T08:12:07;15.07;;;11.77;;
9675;SDS011;4876;42.656;23.292;2023-06-14T08:14:39;13.50;;;11.33;;
9675;SDS011;4876;42.656;23.292;2023-06-14T08:17:06;12.40;;;11.10;;
9675;SDS011;4876;42.656;23.292;2023-06-14T08:19:33;12.67;;;11.47;;
9675;SDS011;4876;42.656;23.292;2023-06-14T08:22:02;16.20;;;12.77;;
9675;SDS011;4876;42.656;23.292;2023-06-14T08:24:29;20.67;;;12.23;;
9675;SDS011;4876;42.656;23.292;2023-06-14T08:26:57;15.73;;;11.40;;
9675;SDS011;4876;42.656;23.292;2023-06-14T08:29:26;18.97;;;12.03;;
9675;SDS011;4876;42.656;23.292;2023-06-14T08:31:55;20.90;;;13.03;;
9675;SDS011;4876;42.656;23.292;2023-06-14T08:34:22;14.53;;;11.93;;
9675;SDS011;4876;42.656;23.292;2023-06-14T08:36:49;14.67;;;12.23;;
9675;SDS011;4876;42.656;23.292;2023-06-14T08:39:16;13.00;;;11.63;;
9675;SDS011;4876;42.656;23.292;2023-06-14T08:41:43;15.27;;;10.80;;
9675;SDS011;4876;42.656;23.292;2023-06-14T08:44:13;15.47;;;12.33;;
9675;SDS011;4876;42.656;23.292;2023-06-14T08:46:41;14.20;;;12.07;;
9675;SDS011;4876;42.656;23.292;2023-06-14T08:49:10;14.17;;;12.10;;
9675;SDS011;4876;42.656;23.292;2023-06-14T08:51:39;18.97;;;12.30;;
9675;SDS011;4876;42.656;23.292;2023-06-14T08:54:07;14.80;;;12.83;;
9675;SDS011;4876;42.656;23.292;2023-06-14T08:56:34;13.77;;;11.47;;
9675;SDS011;4876;42.656;23.292;2023-06-14T08:59:06;14.50;;;12.70;;
9675;SDS011;4876;42.656;23.292;2023-06-14T09:01:35;12.70;;;11.40;;
9675;SDS011;4876;42.656;23.292;2023-06-14T09:04:03;15.73;;;12.90;;
9675;SDS011;4876;42.656;23.292;2023-06-14T09:06:32;15.23;;;12.80;;
9675;SDS011;4876;42.656;23.292;2023-06-14T09:08:59;17.63;;;12.23;;
9675;SDS011;4876;42.656;23.292;2023-06-14T09:11:27;13.50;;;12.10;;
9675;SDS011;4876;42.656;23.292;2023-06-14T09:13:54;12.20;;;10.90;;
9675;SDS011;4876;42.656;23.292;2023-06-14T09:16:21;13.47;;;11.00;;
9675;SDS011;4876;42.656;23.292;2023-06-14T09:18:48;16.20;;;12.63;;
9675;SDS011;4876;42.656;23.292;2023-06-14T09:21:15;13.10;;;11.63;;
9675;SDS011;4876;42.656;23.292;2023-06-14T09:23:44;14.97;;;11.10;;
9675;SDS011;4876;42.656;23.292;2023-06-14T09:26:12;16.30;;;12.40;;
9675;SDS011;4876;42.656;23.292;2023-06-14T09:28:41;16.63;;;13.23;;
9675;SDS011;4876;42.656;23.292;2023-06-14T09:31:09;15.43;;;13.37;;
9675;SDS011;4876;42.656;23.292;2023-06-14T09:33:37;15.00;;;13.37;;
9675;SDS011;4876;42.656;23.292;2023-06-14T09:36:03;14.80;;;13.10;;
9675;SDS011;4876;42.656;23.292;2023-06-14T09:38:31;15.37;;;13.27;;
9675;SDS011;4876;42.656;23.292;2023-06-14T09:41:01;13.67;;;11.93;;
9675;SDS011;4876;42.656;23.292;2023-06-14T09:43:30;17.07;;;12.37;;
9675;SDS011;4876;42.656;23.292;2023-06-14T09:45:59;18.23;;;12.53;;
9675;SDS011;4876;42.656;23.292;2023-06-14T09:48:26;16.40;;;13.00;;
9675;SDS011;4876;42.656;23.292;2023-06-14T09:50:53;18.77;;;12.63;;
9675;SDS011;4876;42.656;23.292;2023-06-14T09:53:23;15.07;;;12.10;;
9675;SDS011;4876;42.656;23.292;2023-06-14T09:55:50;21.27;;;12.93;;
9675;SDS011;4876;42.656;23.292;2023-06-14T09:58:22;14.37;;;11.27;;
9675;SDS011;4876;42.656;23.292;2023-06-14T10:00:52;13.23;;;11.83;;
9675;SDS011;4876;42.656;23.292;2023-06-14T10:03:24;17.10;;;11.87;;
9675;SDS011;4876;42.656;23.292;2023-06-14T10:05:55;18.40;;;11.40;;
9675;SDS011;4876;42.656;23.292;2023-06-14T10:08:27;18.10;;;12.60;;
9675;SDS011;4876;42.656;23.292;2023-06-14T10:10:58;13.87;;;11.93;;
9675;SDS011;4876;42.656;23.292;2023-06-14T10:13:27;14.07;;;12.57;;
9675;SDS011;4876;42.656;23.292;2023-06-14T10:15:58;15.77;;;12.07;;
9675;SDS011;4876;42.656;23.292;2023-06-14T10:18:33;13.97;;;12.07;;
9675;SDS011;4876;42.656;23.292;2023-06-14T10:21:12;21.17;;;11.50;;
9675;SDS011;4876;42.656;23.292;2023-06-14T10:23:43;13.47;;;12.13;;
9675;SDS011;4876;42.656;23.292;2023-06-14T10:26:17;17.17;;;12.63;;
9675;SDS011;4876;42.656;23.292;2023-06-14T10:28:56;14.50;;;11.67;;
9675;SDS011;4876;42.656;23.292;2023-06-14T10:31:39;17.70;;;11.60;;
9675;SDS011;4876;42.656;23.292;2023-06-14T10:34:08;14.57;;;11.63;;
9675;SDS011;4876;42.656;23.292;2023-06-14T10:36:35;13.20;;;11.80;;
9675;SDS011;4876;42.656;23.292;2023-06-14T10:39:06;13.10;;;9.67;;
9675;SDS011;4876;42.656;23.292;2023-06-14T10:41:35;16.97;;;11.57;;
9675;SDS011;4876;42.656;23.292;2023-06-14T10:47:00;14.77;;;12.33;;
9675;SDS011;4876;42.656;23.292;2023-06-14T10:49:37;12.37;;;10.80;;
9675;SDS011;4876;42.656;23.292;2023-06-14T10:52:16;14.03;;;12.13;;
9675;SDS011;4876;42.656;23.292;2023-06-14T10:55:01;12.43;;;11.07;;
9675;SDS011;4876;42.656;23.292;2023-06-14T10:57:40;13.57;;;12.03;;
9675;SDS011;4876;42.656;23.292;2023-06-14T11:00:10;14.27;;;12.80;;
9675;SDS011;4876;42.656;23.292;2023-06-14T11:02:49;12.60;;;11.30;;
9675;SDS011;4876;42.656;23.292;2023-06-14T11:05:25;15.60;;;11.57;;
9675;SDS011;4876;42.656;23.292;2023-06-14T11:07:58;14.57;;;12.10;;
9675;SDS011;4876;42.656;23.292;2023-06-14T11:10:43;13.80;;;11.90;;
9675;SDS011;4876;42.656;23.292;2023-06-14T11:13:11;19.83;;;10.10;;
9675;SDS011;4876;42.656;23.292;2023-06-14T11:15:45;13.13;;;11.83;;
9675;SDS011;4876;42.656;23.292;2023-06-14T11:18:13;15.20;;;12.13;;
9675;SDS011;4876;42.656;23.292;2023-06-14T11:20:41;13.70;;;12.07;;
9675;SDS011;4876;42.656;23.292;2023-06-14T11:23:08;12.63;;;11.33;;
9675;SDS011;4876;42.656;23.292;2023-06-14T11:25:35;12.97;;;11.13;;
9675;SDS011;4876;42.656;23.292;2023-06-14T11:28:01;14.40;;;11.80;;
9675;SDS011;4876;42.656;23.292;2023-06-14T11:30:28;15.33;;;11.17;;
9675;SDS011;4876;42.656;23.292;2023-06-14T11:32:56;13.53;;;11.47;;
9675;SDS011;4876;42.656;23.292;2023-06-14T11:35:24;15.50;;;11.83;;
9675;SDS011;4876;42.656;23.292;2023-06-14T11:37:52;13.17;;;11.50;;
9675;SDS011;4876;42.656;23.292;2023-06-14T11:40:22;16.00;;;11.03;;
9675;SDS011;4876;42.656;23.292;2023-06-14T11:42:50;11.93;;;10.63;;
9675;SDS011;4876;42.656;23.292;2023-06-14T11:45:25;11.67;;;10.50;;
9675;SDS011;4876;42.656;23.292;2023-06-14T11:47:53;10.87;;;9.87;;
9675;SDS011;4876;42.656;23.292;2023-06-14T11:50:22;10.37;;;9.23;;
9675;SDS011;4876;42.656;23.292;2023-06-14T11:52:52;12.73;;;9.93;;
9675;SDS011;4876;42.656;23.292;2023-06-14T11:55:19;10.23;;;9.23;;
9675;SDS011;4876;42.656;23.292;2023-06-14T11:57:46;15.63;;;9.57;;
9675;SDS011;4876;42.656;23.292;2023-06-14T12:00:14;16.83;;;9.43;;
9675;SDS011;4876;42.656;23.292;2023-06-14T12:02:42;11.70;;;9.83;;
9675;SDS011;4876;42.656;23.292;2023-06-14T12:05:20;10.83;;;8.67;;
9675;SDS011;4876;42.656;23.292;2023-06-14T12:07:48;9.93;;;8.37;;
9675;SDS011;4876;42.656;23.292;2023-06-14T12:10:15;14.73;;;9.70;;
9675;SDS011;4876;42.656;23.292;2023-06-14T12:12:42;9.87;;;8.80;;
9675;SDS011;4876;42.656;23.292;2023-06-14T12:15:10;9.60;;;8.50;;
9675;SDS011;4876;42.656;23.292;2023-06-14T12:17:37;9.87;;;8.07;;
9675;SDS011;4876;42.656;23.292;2023-06-14T12:20:08;8.53;;;7.63;;
9675;SDS011;4876;42.656;23.292;2023-06-14T12:22:39;11.00;;;7.57;;
9675;SDS011;4876;42.656;23.292;2023-06-14T12:25:24;10.97;;;8.70;;
9675;SDS011;4876;42.656;23.292;2023-06-14T12:27:53;10.70;;;8.17;;
9675;SDS011;4876;42.656;23.292;2023-06-14T12:30:20;9.37;;;8.37;;
9675;SDS011;4876;42.656;23.292;2023-06-14T12:32:47;10.23;;;7.83;;
9675;SDS011;4876;42.656;23.292;2023-06-14T12:35:16;10.40;;;8.13;;
9675;SDS011;4876;42.656;23.292;2023-06-14T12:37:43;9.80;;;8.27;;
9675;SDS011;4876;42.656;23.292;2023-06-14T12:40:11;9.87;;;8.20;;
9675;SDS011;4876;42.656;23.292;2023-06-14T12:42:39;11.03;;;7.70;;
9675;SDS011;4876;42.656;23.292;2023-06-14T12:45:06;9.83;;;7.73;;
9675;SDS011;4876;42.656;23.292;2023-06-14T12:47:34;8.63;;;7.80;;
9675;SDS011;4876;42.656;23.292;2023-06-14T12:50:01;13.27;;;7.43;;
9675;SDS011;4876;42.656;23.292;2023-06-14T12:52:28;10.37;;;8.00;;
9675;SDS011;4876;42.656;23.292;2023-06-14T12:54:55;8.23;;;7.43;;
9675;SDS011;4876;42.656;23.292;2023-06-14T12:57:22;12.73;;;8.00;;
9675;SDS011;4876;42.656;23.292;2023-06-14T12:59:51;9.67;;;8.00;;
9675;SDS011;4876;42.656;23.292;2023-06-14T13:02:18;9.60;;;7.90;;
9675;SDS011;4876;42.656;23.292;2023-06-14T13:04:47;8.03;;;7.23;;
9675;SDS011;4876;42.656;23.292;2023-06-14T13:07:14;8.53;;;7.73;;
9675;SDS011;4876;42.656;23.292;2023-06-14T13:09:41;12.07;;;7.83;;
9675;SDS011;4876;42.656;23.292;2023-06-14T13:12:08;11.40;;;7.80;;
9675;SDS011;4876;42.656;23.292;2023-06-14T13:14:37;8.30;;;7.50;;
9675;SDS011;4876;42.656;23.292;2023-06-14T13:17:05;9.13;;;7.57;;
9675;SDS011;4876;42.656;23.292;2023-06-14T13:19:32;9.93;;;7.93;;
9675;SDS011;4876;42.656;23.292;2023-06-14T13:22:00;11.10;;;8.03;;
9675;SDS011;4876;42.656;23.292;2023-06-14T13:24:27;10.80;;;8.53;;
9675;SDS011;4876;42.656;23.292;2023-06-14T13:26:54;10.50;;;7.90;;
9675;SDS011;4876;42.656;23.292;2023-06-14T13:29:22;9.77;;;8.00;;
9675;SDS011;4876;42.656;23.292;2023-06-14T13:31:49;9.13;;;8.23;;
9675;SDS011;4876;42.656;23.292;2023-06-14T13:34:17;12.23;;;7.50;;
9675;SDS011;4876;42.656;23.292;2023-06-14T13:36:44;9.63;;;8.00;;
9675;SDS011;4876;42.656;23.292;2023-06-14T13:39:11;9.73;;;8.80;;
9675;SDS011;4876;42.656;23.292;2023-06-14T13:41:37;11.87;;;8.30;;
9675;SDS011;4876;42.656;23.292;2023-06-14T13:44:04;13.40;;;9.03;;
9675;SDS011;4876;42.656;23.292;2023-06-14T13:46:31;12.20;;;8.47;;
9675;SDS011;4876;42.656;23.292;2023-06-14T13:48:58;9.50;;;8.07;;
9675;SDS011;4876;42.656;23.292;2023-06-14T13:51:27;14.30;;;8.93;;
9675;SDS011;4876;42.656;23.292;2023-06-14T13:53:54;8.77;;;7.87;;
9675;SDS011;4876;42.656;23.292;2023-06-14T13:56:21;10.53;;;8.47;;
9675;SDS011;4876;42.656;23.292;2023-06-14T13:58:49;11.70;;;8.30;;
9675;SDS011;4876;42.656;23.292;2023-06-14T14:01:17;13.30;;;8.90;;
9675;SDS011;4876;42.656;23.292;2023-06-14T14:03:45;9.13;;;8.07;;
9675;SDS011;4876;42.656;23.292;2023-06-14T14:06:12;14.27;;;8.30;;
9675;SDS011;4876;42.656;23.292;2023-06-14T14:08:40;14.00;;;9.07;;
9675;SDS011;4876;42.656;23.292;2023-06-14T14:11:07;9.03;;;8.13;;
9675;SDS011;4876;42.656;23.292;2023-06-14T14:13:34;8.30;;;7.50;;
9675;SDS011;4876;42.656;23.292;2023-06-14T14:16:03;8.53;;;7.70;;
9675;SDS011;4876;42.656;23.292;2023-06-14T14:18:31;7.57;;;6.70;;
9675;SDS011;4876;42.656;23.292;2023-06-14T14:20:58;8.53;;;7.20;;
9675;SDS011;4876;42.656;23.292;2023-06-14T14:23:25;10.77;;;8.03;;
9675;SDS011;4876;42.656;23.292;2023-06-14T14:25:54;8.13;;;6.87;;
9675;SDS011;4876;42.656;23.292;2023-06-14T14:28:21;13.90;;;7.10;;
9675;SDS011;4876;42.656;23.292;2023-06-14T14:30:48;5.77;;;5.13;;
9675;SDS011;4876;42.656;23.292;2023-06-14T14:33:15;9.77;;;5.60;;
9675;SDS011;4876;42.656;23.292;2023-06-14T14:35:43;10.17;;;7.00;;
9675;SDS011;4876;42.656;23.292;2023-06-14T14:38:11;7.20;;;6.50;;
9675;SDS011;4876;42.656;23.292;2023-06-14T14:40:38;7.67;;;6.87;;
9675;SDS011;4876;42.656;23.292;2023-06-14T14:43:07;9.43;;;6.33;;
9675;SDS011;4876;42.656;23.292;2023-06-14T14:45:34;7.53;;;6.70;;
9675;SDS011;4876;42.656;23.292;2023-06-14T14:48:01;8.83;;;7.30;;
9675;SDS011;4876;42.656;23.292;2023-06-14T14:50:28;6.27;;;5.37;;
9675;SDS011;4876;42.656;23.292;2023-06-14T14:52:55;7.10;;;5.50;;
9675;SDS011;4876;42.656;23.292;2023-06-14T14:55:22;9.00;;;5.77;;
9675;SDS011;4876;42.656;23.292;2023-06-14T14:57:49;6.63;;;5.60;;